Time;durP1;ratioP1;P1;durP2;ratioP2;P2;SDS_P1;SDS_P2;PMS_P1;PMS_P2;Temp;Humidity;BMP_temperature;BMP_pressure;BME280_temperature;BME280_humidity;BME280_pressure;Samples;Min_cycle;Max_cycle;Signal;HPM_P1;HPM_P2
2021/03/21 00:00:00;;;;;;;;;;;-1.70;81.40;;;;;;5054472;28;19912;-81
2021/03/21 00:02:26;;;;;;;;;;;-1.70;81.20;;;;;;5053545;28;19959;-81
2021/03/21 00:04:52;;;;;;;;;;;-1.80;81.10;;;;;;5047589;28;20599;-81
2021/03/21 00:07:17;;;;;;;;;;;-1.80;81.00;;;;;;5054415;28;19962;-81
2021/03/21 00:09:43;;;;;;;;;;;-1.90;81.00;;;;;;5054374;28;19954;-81
2021/03/21 00:12:09;;;;;;;;;;;-2.00;80.70;;;;;;5054402;28;19959;-82
2021/03/21 00:14:35;;;;;;;;;;;-2.00;80.70;;;;;;5055392;28;19913;-81
2021/03/21 00:17:02;;;;;;;;;;;-2.00;80.70;;;;;;5048914;28;20285;-82
2021/03/21 00:19:28;;;;;;;;;;;-2.00;80.90;;;;;;5055744;28;20577;-81
2021/03/21 00:21:53;;;;;;;;;;;-2.00;80.90;;;;;;5036467;28;19909;-82
2021/03/21 00:24:19;;;;;;;;;;;-2.00;80.90;;;;;;5054731;28;19905;-81
2021/03/21 00:26:45;;;;;;;;;;;-2.10;81.00;;;;;;5054311;28;19996;-81
2021/03/21 00:29:10;;;;;;;;;;;-2.10;81.30;;;;;;5036989;28;20277;-83
2021/03/21 00:31:36;;;;;;;;;;;-2.10;81.40;;;;;;5054513;28;19905;-81
2021/03/21 00:34:02;;;;;;;;;;;-2.10;81.90;;;;;;5036190;28;19935;-80
2021/03/21 00:36:28;;;;;;;;;;;-2.20;81.90;;;;;;5052517;28;19911;-80
2021/03/21 00:38:54;;;;;;;;;;;-2.20;82.30;;;;;;5035892;28;19908;-81
2021/03/21 00:41:22;;;;;;;;;;;-2.20;82.70;;;;;;5054099;28;19911;-79
2021/03/21 00:43:50;;;;;;;;;;;-2.20;82.80;;;;;;5053925;28;19987;-82
2021/03/21 00:46:15;;;;;;;;;;;-2.20;82.80;;;;;;5053832;28;20393;-79
2021/03/21 00:48:42;;;;;;;;;;;-2.20;83.10;;;;;;5035897;28;19905;-80
2021/03/21 00:51:08;;;;;;;;;;;-2.20;83.30;;;;;;5053823;28;20302;-79
2021/03/21 00:53:34;;;;;;;;;;;-2.30;83.20;;;;;;5054346;28;19959;-79
2021/03/21 00:56:00;;;;;;;;;;;-2.30;83.10;;;;;;5053669;28;19905;-80
2021/03/21 00:58:26;;;;;;;;;;;-2.30;83.10;;;;;;5053615;28;19962;-80
2021/03/21 01:00:53;;;;;;;;;;;-2.40;83.10;;;;;;5053434;28;19939;-80
2021/03/21 01:03:19;;;;;;;;;;;-2.40;83.20;;;;;;5053580;28;19947;-79
2021/03/21 01:05:47;;;;;;;;;;;-2.40;83.20;;;;;;5053428;28;19948;-79
2021/03/21 01:08:22;;;;;;;;;;;-2.40;83.10;;;;;;5053700;28;19905;-80
2021/03/21 01:10:48;;;;;;;;;;;-2.40;83.10;;;;;;5053267;28;19940;-81
2021/03/21 01:13:15;;;;;;;;;;;-2.40;83.00;;;;;;5052840;28;19967;-81
2021/03/21 01:15:40;;;;;;;;;;;-2.40;82.80;;;;;;5053461;28;19911;-79
2021/03/21 01:18:09;;;;;;;;;;;-2.40;82.60;;;;;;5053333;28;20420;-79
2021/03/21 01:20:35;;;;;;;;;;;-2.40;82.40;;;;;;5053361;28;19958;-79
2021/03/21 01:23:00;;;;;;;;;;;-2.40;82.10;;;;;;5035266;28;19905;-81
2021/03/21 01:25:27;;;;;;;;;;;-2.40;81.90;;;;;;5053319;28;19912;-79
2021/03/21 01:27:54;;;;;;;;;;;-2.50;81.70;;;;;;5053178;28;19904;-79
2021/03/21 01:30:20;;;;;;;;;;;-2.40;81.50;;;;;;5053121;28;19904;-79
2021/03/21 01:32:46;;;;;;;;;;;-2.50;81.20;;;;;;5052976;28;19905;-78
2021/03/21 01:35:11;;;;;;;;;;;-2.40;80.90;;;;;;5043932;28;19915;-79
2021/03/21 01:37:37;;;;;;;;;;;-2.40;80.60;;;;;;5054194;28;19905;-79
2021/03/21 01:40:04;;;;;;;;;;;-2.40;80.40;;;;;;5053163;28;19911;-80
2021/03/21 01:42:38;;;;;;;;;;;-2.40;80.30;;;;;;5053024;28;19905;-81
2021/03/21 01:45:23;;;;;;;;;;;-2.40;80.30;;;;;;5035147;28;20383;-80
2021/03/21 01:47:49;;;;;;;;;;;-2.40;80.10;;;;;;5052705;28;20003;-80
2021/03/21 01:50:26;;;;;;;;;;;-2.40;80.00;;;;;;5052676;28;19948;-80
2021/03/21 01:52:52;;;;;;;;;;;-2.40;79.90;;;;;;5052831;28;19904;-81
2021/03/21 01:55:19;;;;;;;;;;;-2.40;79.80;;;;;;5052719;28;19909;-80
2021/03/21 01:57:45;;;;;;;;;;;-2.30;79.80;;;;;;5052911;28;20012;-80
2021/03/21 02:00:12;;;;;;;;;;;-2.40;79.40;;;;;;5052802;28;19947;-81
2021/03/21 02:02:37;;;;;;;;;;;-2.40;79.30;;;;;;5053340;28;19905;-81
2021/03/21 02:05:04;;;;;;;;;;;-2.40;79.10;;;;;;5053684;28;19911;-80
2021/03/21 02:07:49;;;;;;;;;;;-2.40;79.10;;;;;;5053635;28;19911;-81
2021/03/21 02:10:15;;;;;;;;;;;-2.30;79.00;;;;;;5032206;28;19915;-80
2021/03/21 02:12:59;;;;;;;;;;;-2.30;78.90;;;;;;5053745;28;19916;-80
2021/03/21 02:15:25;;;;;;;;;;;-2.30;78.70;;;;;;5051695;28;19916;-81
2021/03/21 02:18:08;;;;;;;;;;;-2.30;78.60;;;;;;5050714;28;19916;-80
2021/03/21 02:20:37;;;;;;;;;;;-2.30;78.50;;;;;;5052953;28;19908;-81
2021/03/21 02:23:06;;;;;;;;;;;-2.40;78.30;;;;;;5052704;28;19909;-80
2021/03/21 02:25:51;;;;;;;;;;;-2.30;78.40;;;;;;5055578;28;20346;-82
2021/03/21 02:28:22;;;;;;;;;;;-2.40;78.20;;;;;;5056492;28;19905;-81
2021/03/21 02:30:50;;;;;;;;;;;-2.40;78.00;;;;;;5056590;28;19905;-81
2021/03/21 02:33:30;;;;;;;;;;;-2.50;78.00;;;;;;5048328;28;19913;-81
2021/03/21 02:36:01;;;;;;;;;;;-2.50;78.00;;;;;;5056669;28;19915;-82
2021/03/21 02:38:26;;;;;;;;;;;-2.60;77.80;;;;;;5056555;28;19905;-81
2021/03/21 02:40:58;;;;;;;;;;;-2.60;77.90;;;;;;5056462;28;20357;-80
2021/03/21 02:43:29;;;;;;;;;;;-2.70;77.60;;;;;;5056534;28;19905;-82
2021/03/21 02:45:58;;;;;;;;;;;-2.70;77.50;;;;;;5038677;28;19928;-82
2021/03/21 02:48:26;;;;;;;;;;;-2.70;77.40;;;;;;5038096;28;20370;-82
2021/03/21 02:50:54;;;;;;;;;;;-2.70;77.20;;;;;;5056373;28;19917;-81
2021/03/21 02:53:25;;;;;;;;;;;-2.80;76.90;;;;;;5055967;28;20014;-80
2021/03/21 02:55:54;;;;;;;;;;;-2.70;76.90;;;;;;5057032;28;19905;-80
2021/03/21 02:58:25;;;;;;;;;;;-2.80;76.90;;;;;;5036144;28;19974;-80
2021/03/21 03:01:06;;;;;;;;;;;-2.70;76.90;;;;;;5055339;28;19905;-81
2021/03/21 03:03:32;;;;;;;;;;;-2.60;76.90;;;;;;5057056;28;19911;-81
2021/03/21 03:06:00;;;;;;;;;;;-2.60;76.80;;;;;;5057981;28;19950;-82
2021/03/21 03:08:31;;;;;;;;;;;-2.50;76.60;;;;;;5055626;28;20280;-80
2021/03/21 03:10:59;;;;;;;;;;;-2.40;76.70;;;;;;5043511;28;20377;-80
2021/03/21 03:13:33;;;;;;;;;;;-2.40;76.50;;;;;;5037544;28;19913;-82
2021/03/21 03:16:01;;;;;;;;;;;-2.30;76.50;;;;;;5051518;28;19966;-80
2021/03/21 03:18:35;;;;;;;;;;;-2.30;76.50;;;;;;5055531;28;20371;-80
2021/03/21 03:21:05;;;;;;;;;;;-2.30;76.40;;;;;;5055637;28;20346;-80
2021/03/21 03:23:35;;;;;;;;;;;-2.30;76.50;;;;;;5055564;28;19904;-79
2021/03/21 03:26:19;;;;;;;;;;;-2.20;76.60;;;;;;5055313;28;20316;-80
2021/03/21 03:29:02;;;;;;;;;;;-2.20;76.60;;;;;;5055399;28;19944;-80
2021/03/21 03:31:39;;;;;;;;;;;-2.10;76.50;;;;;;5049591;28;19904;-79
2021/03/21 03:34:05;;;;;;;;;;;-2.20;76.50;;;;;;5055140;28;19913;-80
2021/03/21 03:36:32;;;;;;;;;;;-2.20;76.60;;;;;;5036941;28;19911;-79
2021/03/21 03:38:58;;;;;;;;;;;-2.10;76.80;;;;;;5055294;28;19905;-80
2021/03/21 03:41:23;;;;;;;;;;;-2.10;76.90;;;;;;5038006;28;20358;-79
2021/03/21 03:44:12;;;;;;;;;;;-2.20;76.90;;;;;;5055213;28;20366;-80
2021/03/21 03:46:37;;;;;;;;;;;-2.20;76.90;;;;;;5055080;28;19951;-80
2021/03/21 03:49:05;;;;;;;;;;;-2.20;77.10;;;;;;5055159;28;20319;-81
2021/03/21 03:51:35;;;;;;;;;;;-2.10;77.20;;;;;;5037638;28;19921;-80
2021/03/21 03:54:08;;;;;;;;;;;-2.10;77.30;;;;;;5037703;28;19919;-81
2021/03/21 03:56:40;;;;;;;;;;;-2.10;77.40;;;;;;5037470;28;19994;-80
2021/03/21 03:59:25;;;;;;;;;;;-2.10;77.50;;;;;;5054917;28;20380;-81
2021/03/21 04:01:55;;;;;;;;;;;-2.10;77.60;;;;;;5054874;28;20316;-81
2021/03/21 04:04:36;;;;;;;;;;;-2.00;77.60;;;;;;5037041;28;20282;-82
2021/03/21 04:07:02;;;;;;;;;;;-2.00;77.50;;;;;;5054816;28;20015;-81
2021/03/21 04:09:28;;;;;;;;;;;-1.90;77.60;;;;;;5036852;28;19909;-81
2021/03/21 04:11:57;;;;;;;;;;;-1.70;77.70;;;;;;5054545;28;19909;-81
2021/03/21 04:14:36;;;;;;;;;;;-1.60;77.60;;;;;;5054613;28;19917;-81
2021/03/21 04:17:23;;;;;;;;;;;-1.50;77.50;;;;;;5036698;28;20259;-83
2021/03/21 04:19:51;;;;;;;;;;;-1.40;76.90;;;;;;5054286;28;19959;-81
2021/03/21 04:22:21;;;;;;;;;;;-1.40;76.00;;;;;;5054444;28;20366;-81
2021/03/21 04:24:59;;;;;;;;;;;-1.30;76.10;;;;;;5054329;28;19915;-82
2021/03/21 04:27:26;;;;;;;;;;;-1.00;76.20;;;;;;5028118;28;19909;-80
2021/03/21 04:29:57;;;;;;;;;;;-0.70;75.80;;;;;;5049462;28;20399;-81
2021/03/21 04:32:28;;;;;;;;;;;-0.60;74.30;;;;;;5054857;28;19908;-79
2021/03/21 04:34:56;;;;;;;;;;;-0.70;73.70;;;;;;5038350;28;19916;-82
2021/03/21 04:37:23;;;;;;;;;;;-0.80;73.50;;;;;;5054981;28;20041;-80
2021/03/21 04:39:50;;;;;;;;;;;-0.90;73.60;;;;;;5055014;28;19911;-81
2021/03/21 04:42:26;;;;;;;;;;;-0.80;73.80;;;;;;5054935;28;20027;-80
2021/03/21 04:44:54;;;;;;;;;;;-0.90;73.50;;;;;;5051656;28;20394;-81
2021/03/21 04:47:40;;;;;;;;;;;-0.80;73.70;;;;;;5033075;28;19905;-83
2021/03/21 04:50:06;;;;;;;;;;;-0.80;73.60;;;;;;5022021;28;20026;-82
2021/03/21 04:52:44;;;;;;;;;;;-0.80;73.70;;;;;;5034792;28;19964;-80
2021/03/21 04:55:13;;;;;;;;;;;-0.70;73.60;;;;;;5018833;28;20299;-79
2021/03/21 04:57:44;;;;;;;;;;;-0.50;73.50;;;;;;5025080;28;20226;-80
2021/03/21 05:00:15;;;;;;;;;;;-0.40;73.40;;;;;;5054075;28;19916;-81
2021/03/21 05:02:45;;;;;;;;;;;-0.30;73.40;;;;;;5036738;28;20264;-81
2021/03/21 05:05:24;;;;;;;;;;;-0.20;73.10;;;;;;5047336;28;20002;-81
2021/03/21 05:07:54;;;;;;;;;;;-0.20;72.50;;;;;;5035681;28;19909;-81
2021/03/21 05:10:23;;;;;;;;;;;-0.30;72.30;;;;;;5053286;28;19912;-77
2021/03/21 05:12:58;;;;;;;;;;;-0.30;72.50;;;;;;5029400;28;19905;-78
2021/03/21 05:15:42;;;;;;;;;;;-0.40;72.60;;;;;;5044491;28;19916;-83
2021/03/21 05:18:14;;;;;;;;;;;-0.40;72.60;;;;;;5053226;28;19939;-82
2021/03/21 05:20:43;;;;;;;;;;;-0.30;72.60;;;;;;5053700;28;19983;-85
2021/03/21 05:23:08;;;;;;;;;;;-0.20;72.40;;;;;;5055115;28;20433;-87
2021/03/21 05:25:53;;;;;;;;;;;-0.30;71.90;;;;;;5036064;28;20006;-87
2021/03/21 05:31:24;;;;;;;;;;;-0.20;72.20;;;;;;5054030;28;19915;-81
2021/03/21 05:33:49;;;;;;;;;;;-0.10;71.50;;;;;;5054490;28;20378;-87
2021/03/21 05:36:31;;;;;;;;;;;-0.10;71.30;;;;;;5053094;28;19911;-82
2021/03/21 05:38:58;;;;;;;;;;;0.00;71.30;;;;;;5054189;28;20412;-83
2021/03/21 05:41:27;;;;;;;;;;;0.10;70.50;;;;;;5035572;28;20285;-83
2021/03/21 05:44:08;;;;;;;;;;;-0.10;69.90;;;;;;5052985;28;19905;-85
2021/03/21 05:46:39;;;;;;;;;;;-0.20;70.40;;;;;;5034533;28;20358;-82
2021/03/21 05:49:17;;;;;;;;;;;-0.20;70.40;;;;;;5035324;28;20002;-82
2021/03/21 05:52:01;;;;;;;;;;;-0.10;70.40;;;;;;5052968;28;19978;-83
2021/03/21 05:54:34;;;;;;;;;;;-0.20;70.10;;;;;;5053313;28;19916;-82
2021/03/21 05:57:15;;;;;;;;;;;0.00;70.30;;;;;;5052805;28;19905;-82
2021/03/21 05:59:43;;;;;;;;;;;0.00;68.30;;;;;;5052814;28;19996;-82
2021/03/21 06:02:15;;;;;;;;;;;0.00;68.60;;;;;;5035676;28;20381;-81
2021/03/21 06:04:59;;;;;;;;;;;0.00;68.60;;;;;;5035932;28;20342;-90
2021/03/21 06:07:31;;;;;;;;;;;0.00;68.50;;;;;;5053160;28;19911;-78
2021/03/21 06:09:57;;;;;;;;;;;0.10;68.30;;;;;;5052599;28;20003;-81
2021/03/21 06:12:41;;;;;;;;;;;0.00;68.30;;;;;;5052131;28;19944;-83
2021/03/21 06:15:12;;;;;;;;;;;0.10;68.50;;;;;;5052564;28;19917;-80
2021/03/21 06:17:57;;;;;;;;;;;0.10;67.90;;;;;;5032871;28;19992;-79
2021/03/21 06:20:28;;;;;;;;;;;0.10;67.30;;;;;;5053959;28;19909;-84
2021/03/21 06:23:13;;;;;;;;;;;0.10;67.10;;;;;;5066042;28;19989;-85
2021/03/21 06:25:44;;;;;;;;;;;0.10;66.30;;;;;;5055199;28;19908;-87
2021/03/21 06:28:31;;;;;;;;;;;0.10;66.10;;;;;;5049975;28;19905;-91
2021/03/21 06:31:15;;;;;;;;;;;0.30;66.00;;;;;;5057553;28;19904;-86
2021/03/21 06:33:59;;;;;;;;;;;0.60;65.80;;;;;;5029707;28;19912;-89
2021/03/21 06:36:31;;;;;;;;;;;0.70;64.10;;;;;;5037309;28;19912;-85
2021/03/21 06:39:18;;;;;;;;;;;1.00;64.40;;;;;;5057552;28;19939;-84
2021/03/21 06:41:53;;;;;;;;;;;1.00;63.10;;;;;;5054281;28;19936;-89
2021/03/21 06:44:31;;;;;;;;;;;1.00;62.70;;;;;;5048179;28;19913;-84
2021/03/21 06:47:11;;;;;;;;;;;0.90;62.80;;;;;;5053053;28;20365;-88
2021/03/21 06:49:57;;;;;;;;;;;0.80;63.00;;;;;;5047554;28;19905;-91
2021/03/21 06:52:23;;;;;;;;;;;0.80;62.90;;;;;;5044986;28;20043;-90
2021/03/21 06:54:51;;;;;;;;;;;0.90;63.00;;;;;;5054589;28;19912;-90
2021/03/21 06:57:23;;;;;;;;;;;0.90;62.40;;;;;;5050502;28;19905;-91
2021/03/21 07:00:07;;;;;;;;;;;0.80;62.00;;;;;;5036679;28;19905;-90
2021/03/21 07:02:51;;;;;;;;;;;0.70;61.50;;;;;;5015188;28;19905;-91
2021/03/21 07:05:35;;;;;;;;;;;0.70;61.20;;;;;;5051973;28;20089;-92
2021/03/21 07:08:20;;;;;;;;;;;0.80;60.70;;;;;;5038656;28;19905;-90
2021/03/21 07:10:48;;;;;;;;;;;0.60;60.20;;;;;;5039842;28;20361;-90
2021/03/21 07:13:16;;;;;;;;;;;0.60;59.50;;;;;;5064127;28;19935;-90
2021/03/21 07:15:45;;;;;;;;;;;0.60;59.90;;;;;;5046309;28;20383;-89
2021/03/21 07:18:37;;;;;;;;;;;0.70;60.20;;;;;;5019871;28;20275;-86
2021/03/21 07:21:04;;;;;;;;;;;0.70;60.10;;;;;;5016000;28;20414;-87
2021/03/21 07:23:48;;;;;;;;;;;0.80;60.30;;;;;;5035247;28;19985;-89
2021/03/21 07:26:32;;;;;;;;;;;0.80;59.20;;;;;;5025578;28;20235;-88
2021/03/21 07:29:10;;;;;;;;;;;1.00;59.50;;;;;;5035655;28;19906;-89
2021/03/21 07:31:54;;;;;;;;;;;2.40;60.50;;;;;;5005928;28;20390;-90
2021/03/21 07:34:33;;;;;;;;;;;4.50;58.50;;;;;;5014548;28;19917;-87
2021/03/21 07:37:01;;;;;;;;;;;6.80;55.20;;;;;;5047784;28;19915;-87
2021/03/21 07:39:51;;;;;;;;;;;7.80;47.90;;;;;;5056688;28;19911;-86
2021/03/21 07:42:41;;;;;;;;;;;8.40;45.90;;;;;;5058551;28;19947;-91
2021/03/21 07:45:26;;;;;;;;;;;8.60;42.80;;;;;;5061188;28;19976;-88
2021/03/21 07:48:10;;;;;;;;;;;9.10;44.00;;;;;;5041697;28;19936;-91
2021/03/21 07:50:42;;;;;;;;;;;10.20;41.80;;;;;;5058425;28;19943;-87
2021/03/21 07:53:19;;;;;;;;;;;10.50;40.90;;;;;;5048250;28;19909;-88
2021/03/21 07:55:55;;;;;;;;;;;10.90;38.40;;;;;;5047102;28;19909;-87
2021/03/21 07:58:26;;;;;;;;;;;11.70;37.30;;;;;;5054390;28;20003;-85
2021/03/21 08:00:51;;;;;;;;;;;12.10;38.00;;;;;;5039611;28;19924;-84
2021/03/21 08:03:19;;;;;;;;;;;12.10;37.30;;;;;;5063711;28;19904;-87
2021/03/21 08:05:45;;;;;;;;;;;13.10;37.10;;;;;;5042596;28;20011;-90
2021/03/21 08:08:15;;;;;;;;;;;13.30;34.10;;;;;;5063700;28;19923;-93
2021/03/21 08:10:41;;;;;;;;;;;13.20;33.90;;;;;;5060727;28;19944;-88
2021/03/21 08:13:19;;;;;;;;;;;13.70;33.90;;;;;;5055031;28;20003;-86
2021/03/21 08:15:48;;;;;;;;;;;14.40;33.50;;;;;;5037616;28;19995;-90
2021/03/21 08:18:14;;;;;;;;;;;15.20;31.30;;;;;;5039985;28;19909;-88
2021/03/21 08:20:47;;;;;;;;;;;15.50;30.60;;;;;;5056914;28;19905;-91
2021/03/21 08:23:15;;;;;;;;;;;15.30;30.30;;;;;;5042737;28;19905;-88
2021/03/21 08:25:41;;;;;;;;;;;15.30;29.90;;;;;;5048463;28;19904;-86
2021/03/21 08:28:11;;;;;;;;;;;14.80;30.30;;;;;;5054232;28;19987;-86
2021/03/21 08:30:48;;;;;;;;;;;14.50;30.00;;;;;;5055513;28;20374;-90
2021/03/21 08:33:35;;;;;;;;;;;13.70;30.00;;;;;;5038449;28;19909;-89
2021/03/21 08:36:20;;;;;;;;;;;13.40;30.80;;;;;;5037100;28;19905;-86
2021/03/21 08:39:12;;;;;;;;;;;13.70;30.40;;;;;;5054145;28;20401;-85
2021/03/21 08:41:50;;;;;;;;;;;14.40;30.30;;;;;;5054372;28;19913;-85
2021/03/21 08:44:38;;;;;;;;;;;15.20;29.10;;;;;;5027964;28;19915;-87
2021/03/21 08:47:04;;;;;;;;;;;14.90;28.10;;;;;;5038488;28;20319;-88
2021/03/21 08:49:37;;;;;;;;;;;13.50;28.00;;;;;;5055429;28;20381;-83
2021/03/21 08:52:06;;;;;;;;;;;12.80;29.00;;;;;;5053733;28;19985;-84
2021/03/21 08:54:38;;;;;;;;;;;12.90;30.00;;;;;;5035835;28;19934;-83
2021/03/21 08:57:13;;;;;;;;;;;13.40;30.10;;;;;;5053624;28;19909;-85
2021/03/21 08:59:40;;;;;;;;;;;13.50;29.30;;;;;;5053915;28;19909;-84
2021/03/21 09:02:14;;;;;;;;;;;13.50;29.90;;;;;;5042342;28;19916;-90
2021/03/21 09:04:42;;;;;;;;;;;12.80;28.50;;;;;;5060024;28;20430;-94
2021/03/21 09:07:21;;;;;;;;;;;11.60;29.60;;;;;;5040274;28;19904;-84
2021/03/21 09:10:04;;;;;;;;;;;11.00;30.50;;;;;;5054195;28;19905;-83
2021/03/21 09:12:31;;;;;;;;;;;11.50;31.80;;;;;;5035710;28;19909;-87
2021/03/21 09:15:16;;;;;;;;;;;12.30;30.60;;;;;;5044301;28;19913;-87
2021/03/21 09:17:41;;;;;;;;;;;12.70;30.20;;;;;;5058196;28;20007;-80
2021/03/21 09:20:07;;;;;;;;;;;13.70;30.00;;;;;;5055290;28;20010;-82
2021/03/21 09:22:35;;;;;;;;;;;14.40;29.60;;;;;;5050329;28;20006;-84
2021/03/21 09:25:03;;;;;;;;;;;14.00;27.90;;;;;;5054778;28;19912;-85
2021/03/21 09:27:34;;;;;;;;;;;13.50;29.40;;;;;;5054070;28;19905;-84
2021/03/21 09:30:04;;;;;;;;;;;12.80;29.40;;;;;;5054181;28;19924;-84
2021/03/21 09:32:31;;;;;;;;;;;13.30;30.00;;;;;;5055522;28;19908;-83
2021/03/21 09:35:02;;;;;;;;;;;14.20;29.40;;;;;;5037138;28;19912;-83
2021/03/21 09:37:29;;;;;;;;;;;14.70;29.40;;;;;;5054214;28;19905;-84
2021/03/21 09:39:54;;;;;;;;;;;15.50;29.50;;;;;;5054693;28;19912;-82
2021/03/21 09:42:21;;;;;;;;;;;15.50;28.30;;;;;;5035222;28;20412;-83
2021/03/21 09:44:46;;;;;;;;;;;15.70;28.80;;;;;;5052834;28;19911;-85
2021/03/21 09:47:19;;;;;;;;;;;15.80;28.80;;;;;;5035054;28;19904;-84
2021/03/21 09:50:01;;;;;;;;;;;15.90;28.50;;;;;;5052696;28;19919;-84
2021/03/21 09:52:27;;;;;;;;;;;16.00;28.60;;;;;;5047259;28;19921;-84
2021/03/21 09:54:52;;;;;;;;;;;16.10;28.10;;;;;;5055159;28;20286;-84
2021/03/21 09:57:18;;;;;;;;;;;15.60;27.80;;;;;;5052475;28;20293;-84
2021/03/21 10:00:10;;;;;;;;;;;15.50;28.10;;;;;;5052521;28;19958;-82
2021/03/21 10:02:41;;;;;;;;;;;15.10;27.90;;;;;;5034821;28;19911;-83
2021/03/21 10:05:13;;;;;;;;;;;15.10;28.20;;;;;;5052315;28;19904;-82
2021/03/21 10:07:48;;;;;;;;;;;14.90;28.10;;;;;;5052576;28;19905;-83
2021/03/21 10:10:32;;;;;;;;;;;14.40;28.20;;;;;;5052836;28;19983;-82
2021/03/21 10:12:58;;;;;;;;;;;13.80;28.00;;;;;;5053566;28;19908;-83
2021/03/21 10:15:27;;;;;;;;;;;13.20;28.90;;;;;;5054827;28;19909;-83
2021/03/21 10:17:54;;;;;;;;;;;12.90;29.10;;;;;;5052202;28;19908;-83
2021/03/21 10:20:20;;;;;;;;;;;12.40;29.60;;;;;;5053267;28;19996;-83
2021/03/21 10:22:50;;;;;;;;;;;12.20;29.70;;;;;;5052656;28;20392;-84
2021/03/21 10:25:16;;;;;;;;;;;12.00;29.80;;;;;;5034932;28;19908;-84
2021/03/21 10:27:42;;;;;;;;;;;11.80;30.30;;;;;;5066729;28;19911;-84
2021/03/21 10:30:14;;;;;;;;;;;11.30;30.00;;;;;;5053221;28;19952;-85
2021/03/21 10:32:48;;;;;;;;;;;10.50;30.40;;;;;;5036077;28;19908;-83
2021/03/21 10:35:34;;;;;;;;;;;9.90;31.20;;;;;;5041086;28;19916;-84
2021/03/21 10:38:07;;;;;;;;;;;9.30;31.90;;;;;;5066276;28;19905;-83
2021/03/21 10:40:34;;;;;;;;;;;8.40;32.60;;;;;;5045612;28;19904;-83
2021/03/21 10:43:09;;;;;;;;;;;7.90;33.50;;;;;;5059678;28;19973;-86
2021/03/21 10:45:35;;;;;;;;;;;7.60;34.20;;;;;;5055163;28;20007;-85
2021/03/21 10:48:04;;;;;;;;;;;7.30;34.80;;;;;;5070345;28;19916;-85
2021/03/21 10:50:29;;;;;;;;;;;7.20;35.00;;;;;;5042808;28;19905;-84
2021/03/21 10:53:08;;;;;;;;;;;7.20;35.30;;;;;;5057074;28;19931;-83
2021/03/21 10:55:36;;;;;;;;;;;7.30;35.40;;;;;;5059751;28;19917;-84
2021/03/21 10:58:21;;;;;;;;;;;7.30;35.50;;;;;;5061059;28;19968;-84
2021/03/21 11:01:06;;;;;;;;;;;6.90;36.20;;;;;;5050206;28;19904;-85
2021/03/21 11:03:35;;;;;;;;;;;6.50;37.10;;;;;;5057408;28;19908;-84
2021/03/21 11:06:00;;;;;;;;;;;6.10;37.90;;;;;;5056070;28;19999;-84
2021/03/21 11:08:29;;;;;;;;;;;6.00;38.10;;;;;;5056182;28;19948;-84
2021/03/21 11:10:57;;;;;;;;;;;6.10;38.10;;;;;;5038418;28;20365;-83
2021/03/21 11:13:25;;;;;;;;;;;6.10;38.30;;;;;;5058051;28;19908;-83
2021/03/21 11:15:52;;;;;;;;;;;6.00;38.50;;;;;;5059869;28;19908;-84
2021/03/21 11:18:21;;;;;;;;;;;5.50;39.70;;;;;;5059137;28;19951;-83
2021/03/21 11:20:48;;;;;;;;;;;5.20;40.10;;;;;;5058476;28;19905;-85
2021/03/21 11:23:21;;;;;;;;;;;5.30;40.50;;;;;;5060893;28;19908;-84
2021/03/21 11:25:48;;;;;;;;;;;5.30;40.50;;;;;;5058244;28;20008;-83
2021/03/21 11:28:22;;;;;;;;;;;5.60;40.60;;;;;;5059025;28;19916;-83
2021/03/21 11:30:52;;;;;;;;;;;5.50;41.00;;;;;;5060428;28;19904;-83
2021/03/21 11:33:20;;;;;;;;;;;5.40;41.20;;;;;;5057368;28;19935;-83
2021/03/21 11:35:46;;;;;;;;;;;5.60;41.40;;;;;;5057747;28;19959;-83
2021/03/21 11:38:45;;;;;;;;;;;5.60;41.10;;;;;;5058438;28;19916;-84
2021/03/21 11:41:22;;;;;;;;;;;5.70;41.30;;;;;;5037530;28;19919;-84
2021/03/21 11:43:48;;;;;;;;;;;5.80;41.40;;;;;;5044256;28;20377;-83
2021/03/21 11:46:24;;;;;;;;;;;5.80;41.60;;;;;;5039266;28;19909;-83
2021/03/21 11:48:51;;;;;;;;;;;5.90;41.80;;;;;;5059714;28;19951;-84
2021/03/21 11:51:17;;;;;;;;;;;5.80;41.80;;;;;;5057235;28;19916;-85
2021/03/21 11:53:46;;;;;;;;;;;5.80;42.20;;;;;;5039712;28;20354;-84
2021/03/21 11:56:17;;;;;;;;;;;5.50;42.30;;;;;;5056707;28;20322;-82
2021/03/21 11:59:06;;;;;;;;;;;5.50;42.90;;;;;;5055854;28;20272;-86
2021/03/21 12:01:44;;;;;;;;;;;5.60;43.00;;;;;;5051711;28;20281;-85
2021/03/21 12:04:17;;;;;;;;;;;5.60;43.20;;;;;;5055616;28;20357;-84
2021/03/21 12:06:47;;;;;;;;;;;5.20;43.40;;;;;;5058047;28;19916;-81
2021/03/21 12:09:28;;;;;;;;;;;5.00;43.80;;;;;;5065836;28;19936;-88
2021/03/21 12:11:54;;;;;;;;;;;5.00;44.10;;;;;;5043464;28;19915;-87
2021/03/21 12:14:32;;;;;;;;;;;4.90;44.60;;;;;;5051769;28;19921;-89
2021/03/21 12:16:58;;;;;;;;;;;4.80;44.80;;;;;;5047466;28;19993;-87
2021/03/21 12:19:24;;;;;;;;;;;4.80;45.30;;;;;;5048622;28;19974;-83
2021/03/21 12:21:57;;;;;;;;;;;4.90;45.40;;;;;;5054763;28;19955;-82
2021/03/21 12:24:24;;;;;;;;;;;5.00;45.60;;;;;;5043590;28;19912;-83
2021/03/21 12:26:52;;;;;;;;;;;4.80;46.00;;;;;;5054588;28;19992;-81
2021/03/21 12:29:23;;;;;;;;;;;4.80;46.40;;;;;;5036162;28;19908;-80
2021/03/21 12:31:50;;;;;;;;;;;4.80;46.50;;;;;;5047961;28;19951;-81
2021/03/21 12:34:34;;;;;;;;;;;4.90;46.60;;;;;;5034376;28;19924;-81
2021/03/21 12:37:05;;;;;;;;;;;4.50;47.10;;;;;;5027395;28;19908;-81
2021/03/21 12:39:33;;;;;;;;;;;4.50;47.70;;;;;;5054376;28;19912;-81
2021/03/21 12:41:59;;;;;;;;;;;4.40;48.10;;;;;;5055407;28;19915;-81
2021/03/21 12:44:26;;;;;;;;;;;4.40;48.40;;;;;;5053944;28;19908;-80
2021/03/21 12:46:54;;;;;;;;;;;4.60;48.50;;;;;;5058746;28;20067;-80
2021/03/21 12:49:38;;;;;;;;;;;4.80;48.50;;;;;;5054975;28;19905;-80
2021/03/21 12:52:11;;;;;;;;;;;5.00;48.20;;;;;;5052464;28;20297;-81
2021/03/21 12:54:37;;;;;;;;;;;5.00;47.90;;;;;;5053891;28;20006;-82
2021/03/21 12:57:04;;;;;;;;;;;5.10;48.10;;;;;;5031377;28;19913;-83
2021/03/21 12:59:32;;;;;;;;;;;4.70;48.10;;;;;;5036016;28;19962;-80
2021/03/21 13:01:57;;;;;;;;;;;4.60;48.60;;;;;;5053792;28;19974;-78
2021/03/21 13:04:23;;;;;;;;;;;4.50;49.00;;;;;;5053668;28;19909;-78
2021/03/21 13:06:49;;;;;;;;;;;4.50;49.40;;;;;;5054250;28;19905;-82
2021/03/21 13:09:30;;;;;;;;;;;;;;;;;;;;;
2021/03/21 13:11:56;;;;;;;;;;;4.70;49.30;;;;;;5054962;28;20289;-83
2021/03/21 13:14:22;;;;;;;;;;;4.50;49.60;;;;;;5053440;28;20011;-83
2021/03/21 13:16:47;;;;;;;;;;;4.30;50.60;;;;;;5033458;28;19904;-82
2021/03/21 13:19:13;;;;;;;;;;;4.00;51.30;;;;;;5047974;28;19908;-82
2021/03/21 13:21:41;;;;;;;;;;;3.80;51.70;;;;;;5053658;28;19905;-77
2021/03/21 13:24:07;;;;;;;;;;;3.80;51.90;;;;;;5053378;28;19912;-82
2021/03/21 13:26:35;;;;;;;;;;;3.80;52.10;;;;;;5039123;28;19917;-81
2021/03/21 13:29:00;;;;;;;;;;;3.90;51.80;;;;;;5026751;28;20285;-81
2021/03/21 13:31:26;;;;;;;;;;;3.90;52.20;;;;;;5054200;28;19940;-83
2021/03/21 13:33:54;;;;;;;;;;;3.80;53.60;;;;;;5036127;28;19920;-78
2021/03/21 13:36:20;;;;;;;;;;;3.70;54.40;;;;;;5053792;28;19905;-79
2021/03/21 13:38:46;;;;;;;;;;;3.60;55.50;;;;;;5051892;28;19909;-81
2021/03/21 13:41:11;;;;;;;;;;;3.50;55.70;;;;;;5035366;28;19912;-82
2021/03/21 13:43:37;;;;;;;;;;;3.60;55.80;;;;;;5049889;28;20008;-82
2021/03/21 13:46:03;;;;;;;;;;;3.60;56.20;;;;;;5032980;28;19917;-81
2021/03/21 13:48:30;;;;;;;;;;;3.60;56.20;;;;;;5033087;28;19905;-81
2021/03/21 13:50:57;;;;;;;;;;;3.50;56.40;;;;;;5034970;28;19940;-80
2021/03/21 13:53:30;;;;;;;;;;;3.60;56.50;;;;;;5049069;28;19913;-81
2021/03/21 13:55:56;;;;;;;;;;;3.40;57.30;;;;;;5054655;28;19931;-80
2021/03/21 13:58:22;;;;;;;;;;;3.30;58.40;;;;;;5055519;28;19904;-82
2021/03/21 14:00:48;;;;;;;;;;;3.20;59.10;;;;;;5059045;28;19905;-83
2021/03/21 14:03:15;;;;;;;;;;;3.10;59.70;;;;;;5050533;28;19966;-81
2021/03/21 14:05:43;;;;;;;;;;;3.20;59.90;;;;;;5052015;28;19908;-87
2021/03/21 14:08:09;;;;;;;;;;;3.30;59.50;;;;;;5033342;28;19916;-81
2021/03/21 14:10:36;;;;;;;;;;;3.20;60.10;;;;;;5018667;28;20030;-80
2021/03/21 14:13:02;;;;;;;;;;;3.10;61.70;;;;;;5043314;28;20333;-81
2021/03/21 14:15:28;;;;;;;;;;;2.80;61.70;;;;;;5032321;28;19932;-79
2021/03/21 14:17:56;;;;;;;;;;;2.70;62.40;;;;;;5050186;28;20326;-79
2021/03/21 14:20:28;;;;;;;;;;;2.60;63.40;;;;;;5053763;28;19928;-80
2021/03/21 14:22:54;;;;;;;;;;;2.50;63.90;;;;;;5057596;28;19912;-80
2021/03/21 14:25:22;;;;;;;;;;;2.40;64.70;;;;;;5024192;28;19913;-79
2021/03/21 14:27:48;;;;;;;;;;;2.40;64.40;;;;;;5052310;28;19904;-81
2021/03/21 14:30:14;;;;;;;;;;;2.40;64.90;;;;;;5047657;28;19913;-81
2021/03/21 14:32:40;;;;;;;;;;;2.40;64.70;;;;;;5035151;28;19913;-80
2021/03/21 14:35:07;;;;;;;;;;;2.30;65.10;;;;;;5056249;28;19974;-82
2021/03/21 14:37:35;;;;;;;;;;;2.30;65.00;;;;;;5047429;28;20336;-79
2021/03/21 14:40:01;;;;;;;;;;;2.30;65.10;;;;;;5027174;28;19995;-80
2021/03/21 14:42:27;;;;;;;;;;;2.30;65.10;;;;;;5029539;28;19905;-78
2021/03/21 14:44:56;;;;;;;;;;;2.30;65.30;;;;;;5057101;28;20007;-82
2021/03/21 14:47:22;;;;;;;;;;;2.20;66.10;;;;;;5058455;28;19986;-86
2021/03/21 14:49:49;;;;;;;;;;;2.00;67.30;;;;;;5041292;28;19905;-80